createdAt,value
2019-05-25T00:02:23.678Z,62.00
2019-05-25T00:04:52.265Z,62.20
2019-05-25T00:07:20.837Z,62.80
2019-05-25T00:09:49.522Z,62.90
2019-05-25T00:12:18.097Z,63.10
2019-05-25T00:14:46.669Z,63.30
2019-05-25T00:17:15.229Z,63.70
2019-05-25T00:19:43.872Z,63.80
2019-05-25T00:22:12.410Z,64.50
2019-05-25T00:24:41.006Z,65.20
2019-05-25T00:27:09.566Z,65.30
2019-05-25T00:29:38.121Z,65.50
2019-05-25T00:32:06.630Z,65.60
2019-05-25T00:34:35.199Z,66.00
2019-05-25T00:37:03.780Z,66.50
2019-05-25T00:39:32.348Z,66.10
2019-05-25T00:42:00.950Z,66.20
2019-05-25T00:44:29.515Z,66.50
2019-05-25T00:46:58.087Z,66.80
2019-05-25T00:49:26.706Z,67.00
2019-05-25T00:51:55.288Z,67.30
2019-05-25T00:54:28.037Z,67.70
2019-05-25T00:56:55.363Z,67.50
2019-05-25T00:59:23.846Z,67.70
2019-05-25T01:01:52.380Z,68.50
2019-05-25T01:04:20.881Z,68.90
2019-05-25T01:06:49.452Z,68.70
2019-05-25T01:09:17.930Z,68.90
2019-05-25T01:11:46.435Z,69.30
2019-05-25T01:14:14.973Z,70.10
2019-05-25T01:16:43.589Z,70.50
2019-05-25T01:19:12.126Z,71.00
2019-05-25T01:21:40.706Z,71.70
2019-05-25T01:24:09.219Z,71.90
2019-05-25T01:26:37.752Z,71.70
2019-05-25T01:29:06.250Z,71.40
2019-05-25T01:31:34.753Z,71.60
2019-05-25T01:34:03.252Z,72.00
2019-05-25T01:36:31.808Z,72.00
2019-05-25T01:39:00.406Z,72.60
2019-05-25T01:41:28.967Z,73.20
2019-05-25T01:43:57.575Z,73.70
2019-05-25T01:46:26.132Z,73.80
2019-05-25T01:48:54.693Z,74.60
2019-05-25T01:51:23.293Z,74.70
2019-05-25T01:53:51.829Z,74.50
2019-05-25T01:56:20.486Z,74.10
2019-05-25T01:58:49.044Z,74.10
2019-05-25T02:01:17.532Z,74.50
2019-05-25T02:03:46.016Z,75.30
2019-05-25T02:06:14.613Z,75.40
2019-05-25T02:08:43.166Z,75.90
2019-05-25T02:11:11.718Z,76.30
2019-05-25T02:13:40.285Z,76.30
2019-05-25T02:16:08.851Z,76.10
2019-05-25T02:18:37.316Z,76.30
2019-05-25T02:21:05.811Z,76.20
2019-05-25T02:23:34.329Z,75.90
2019-05-25T02:26:02.900Z,75.60
2019-05-25T02:28:31.422Z,75.20
2019-05-25T02:30:59.952Z,74.70
2019-05-25T02:33:28.461Z,74.70
2019-05-25T02:35:57.018Z,74.40
2019-05-25T02:38:25.582Z,74.60
2019-05-25T02:40:54.242Z,74.90
2019-05-25T02:43:22.806Z,75.00
2019-05-25T02:45:51.266Z,75.20
2019-05-25T02:48:19.731Z,75.90
2019-05-25T02:50:48.359Z,76.00
2019-05-25T02:53:16.858Z,76.00
2019-05-25T02:55:45.350Z,76.30
2019-05-25T02:58:13.899Z,76.00
2019-05-25T03:00:42.480Z,76.30
2019-05-25T03:03:11.047Z,76.60
2019-05-25T03:05:39.768Z,76.90
2019-05-25T03:08:08.309Z,77.10
2019-05-25T03:10:37.120Z,77.90
2019-05-25T03:13:05.806Z,78.20
2019-05-25T03:15:34.366Z,78.40
2019-05-25T03:18:02.913Z,78.30
2019-05-25T03:20:31.383Z,78.60
2019-05-25T03:22:59.894Z,78.80
2019-05-25T03:25:28.434Z,79.30
2019-05-25T03:27:56.996Z,79.40
2019-05-25T03:30:36.065Z,79.70
2019-05-25T03:33:05.057Z,80.00
2019-05-25T03:35:33.823Z,80.40
2019-05-25T03:38:02.408Z,80.60
2019-05-25T03:40:31.006Z,80.50
2019-05-25T03:42:59.813Z,80.60
2019-05-25T03:45:28.417Z,80.80
2019-05-25T03:47:56.188Z,80.60
2019-05-25T03:50:24.738Z,80.50
2019-05-25T03:52:53.297Z,80.60
2019-05-25T03:55:21.763Z,80.80
2019-05-25T03:57:50.260Z,80.80
2019-05-25T04:00:24.643Z,81.00
2019-05-25T04:02:53.165Z,81.20
2019-05-25T04:05:21.699Z,81.20
2019-05-25T04:07:50.240Z,81.70
2019-05-25T04:10:18.807Z,80.90
2019-05-25T04:12:47.354Z,80.80
2019-05-25T04:15:16.011Z,80.90
2019-05-25T04:17:44.517Z,80.90
2019-05-25T04:20:13.222Z,81.20
2019-05-25T04:22:41.688Z,81.00
2019-05-25T04:25:10.224Z,81.20
2019-05-25T04:27:38.716Z,81.30
2019-05-25T04:30:08.249Z,81.50
2019-05-25T04:32:36.840Z,81.50
2019-05-25T04:35:08.753Z,81.40
2019-05-25T04:37:37.310Z,81.50
2019-05-25T04:40:06.837Z,81.30
2019-05-25T04:42:35.742Z,81.50
2019-05-25T04:45:05.925Z,81.50
2019-05-25T04:47:34.484Z,81.20
2019-05-25T04:50:03.328Z,81.30
2019-05-25T04:52:31.075Z,81.30
2019-05-25T04:54:59.637Z,81.10
2019-05-25T04:57:28.195Z,80.70
2019-05-25T04:59:56.801Z,80.90
2019-05-25T05:02:25.380Z,80.40
2019-05-25T05:04:53.939Z,79.90
2019-05-25T05:07:22.533Z,79.50
2019-05-25T05:10:02.196Z,78.70
2019-05-25T05:12:21.471Z,78.40
2019-05-25T05:14:50.101Z,78.00
2019-05-25T05:17:18.623Z,77.80
2019-05-25T05:19:47.200Z,77.20
2019-05-25T05:22:15.775Z,77.10
2019-05-25T05:24:44.368Z,77.00
2019-05-25T05:27:13.201Z,76.40
2019-05-25T05:29:41.789Z,76.60
2019-05-25T05:32:10.340Z,76.40
2019-05-25T05:34:38.925Z,76.40
2019-05-25T05:37:08.019Z,76.20
2019-05-25T05:39:36.865Z,76.00
2019-05-25T05:42:06.978Z,75.40
2019-05-25T05:44:38.069Z,75.10
2019-05-25T05:47:10.454Z,75.20
2019-05-25T05:49:38.196Z,74.90
2019-05-25T05:52:06.799Z,74.80
2019-05-25T05:54:38.481Z,74.90
2019-05-25T05:57:12.255Z,75.00
2019-05-25T05:59:37.313Z,74.90
2019-05-25T06:02:06.964Z,75.10
2019-05-25T06:04:35.545Z,75.40
2019-05-25T06:07:04.285Z,74.40
2019-05-25T06:09:32.813Z,75.00
2019-05-25T06:12:01.390Z,75.00
2019-05-25T06:14:29.956Z,74.80
2019-05-25T06:16:59.624Z,75.20
2019-05-25T06:19:28.190Z,75.40
2019-05-25T06:21:56.664Z,75.60
2019-05-25T06:24:25.175Z,75.10
2019-05-25T06:26:55.727Z,75.10
2019-05-25T06:29:24.265Z,74.90
2019-05-25T06:31:52.742Z,74.20
2019-05-25T06:34:21.478Z,73.50
2019-05-25T06:36:49.992Z,72.90
2019-05-25T06:39:18.560Z,72.20
2019-05-25T06:41:47.150Z,72.30
2019-05-25T06:44:15.628Z,73.10
2019-05-25T06:46:44.110Z,73.70
2019-05-25T06:49:12.604Z,73.50
2019-05-25T06:51:41.116Z,73.60
2019-05-25T06:54:09.694Z,73.00
2019-05-25T06:56:38.273Z,72.80
2019-05-25T06:59:06.869Z,73.50
2019-05-25T07:01:35.475Z,74.10
2019-05-25T07:04:04.042Z,74.40
2019-05-25T07:06:32.600Z,74.50
2019-05-25T07:09:01.177Z,73.90
2019-05-25T07:11:31.063Z,73.80
2019-05-25T07:13:59.606Z,73.60
2019-05-25T07:16:28.684Z,73.50
2019-05-25T07:18:57.154Z,74.10
2019-05-25T07:21:25.239Z,73.70
2019-05-25T07:23:53.767Z,72.70
2019-05-25T07:26:22.348Z,72.20
2019-05-25T07:28:50.976Z,72.50
2019-05-25T07:31:19.574Z,73.20
2019-05-25T07:33:48.411Z,73.60
2019-05-25T07:36:17.005Z,73.40
2019-05-25T07:38:46.844Z,73.30
2019-05-25T07:41:15.685Z,73.30
2019-05-25T07:43:44.244Z,73.50
2019-05-25T07:46:12.819Z,73.00
2019-05-25T07:48:41.747Z,72.70
2019-05-25T07:51:11.961Z,73.20
2019-05-25T07:53:40.560Z,73.00
2019-05-25T07:56:10.594Z,73.10
2019-05-25T07:58:39.703Z,73.10
2019-05-25T08:01:08.317Z,72.60
2019-05-25T08:03:39.735Z,72.40
2019-05-25T08:06:07.140Z,72.20
2019-05-25T08:08:35.731Z,72.40
2019-05-25T08:11:07.482Z,72.20
2019-05-25T08:13:37.511Z,72.20
2019-05-25T08:16:06.404Z,72.20
2019-05-25T08:18:36.633Z,71.70
2019-05-25T08:21:06.523Z,71.10
2019-05-25T08:23:37.468Z,71.70
2019-05-25T08:26:06.658Z,71.80
2019-05-25T08:28:36.748Z,71.70
2019-05-25T08:31:06.802Z,71.80
2019-05-25T08:33:38.177Z,72.00
2019-05-25T08:36:09.593Z,72.10
2019-05-25T08:38:39.479Z,72.00
2019-05-25T08:41:07.572Z,72.10
2019-05-25T08:43:38.869Z,72.00
2019-05-25T08:46:08.565Z,72.20
2019-05-25T08:48:37.223Z,72.00
2019-05-25T08:51:07.974Z,71.50
2019-05-25T08:53:41.844Z,70.90
2019-05-25T08:56:07.263Z,69.90
2019-05-25T08:58:47.912Z,69.60
2019-05-25T09:01:08.194Z,69.50
2019-05-25T09:03:37.110Z,69.10
2019-05-25T09:06:05.670Z,69.90
2019-05-25T09:08:35.716Z,69.10
2019-05-25T09:11:04.298Z,69.80
2019-05-25T09:13:32.142Z,69.70
2019-05-25T09:16:00.723Z,70.00
2019-05-25T09:18:29.346Z,69.90
2019-05-25T09:20:57.871Z,70.10
2019-05-25T09:23:26.433Z,70.60
2019-05-25T09:25:54.921Z,70.90
2019-05-25T09:28:23.487Z,72.50
2019-05-25T09:30:51.956Z,71.40
2019-05-25T09:33:20.564Z,70.90
2019-05-25T09:35:52.266Z,70.10
2019-05-25T09:38:21.423Z,69.60
2019-05-25T09:40:49.244Z,69.70
2019-05-25T09:43:17.827Z,69.70
2019-05-25T09:45:46.694Z,70.50
2019-05-25T09:48:15.087Z,70.50
2019-05-25T09:50:45.070Z,70.50
2019-05-25T09:53:13.560Z,71.40
2019-05-25T09:55:42.148Z,70.90
2019-05-25T09:58:10.781Z,70.90
2019-05-25T10:00:40.418Z,71.20
2019-05-25T10:03:09.249Z,71.50
2019-05-25T10:05:37.869Z,71.70
2019-05-25T10:08:06.460Z,72.20
2019-05-25T10:10:35.295Z,72.30
2019-05-25T10:13:04.008Z,72.40
2019-05-25T10:15:32.858Z,71.90
2019-05-25T10:18:03.162Z,72.50
2019-05-25T10:20:31.732Z,72.30
2019-05-25T10:23:03.555Z,72.50
2019-05-25T10:25:32.225Z,71.70
2019-05-25T10:28:01.722Z,71.00
2019-05-25T10:30:30.298Z,70.60
2019-05-25T10:32:59.474Z,70.00
2019-05-25T10:35:29.566Z,70.40
2019-05-25T10:37:58.041Z,69.00
2019-05-25T10:40:27.297Z,69.40
2019-05-25T10:42:56.936Z,70.20
2019-05-25T10:45:25.542Z,69.50
2019-05-25T10:47:54.248Z,69.50
2019-05-25T10:50:27.073Z,68.60
2019-05-25T10:52:57.213Z,67.20
2019-05-25T10:55:25.808Z,66.70
2019-05-25T10:57:54.385Z,66.40
2019-05-25T11:00:23.285Z,66.60
2019-05-25T11:02:51.870Z,67.90
2019-05-25T11:05:21.028Z,67.80
2019-05-25T11:07:51.546Z,68.00
2019-05-25T11:10:19.972Z,67.10
2019-05-25T11:12:48.551Z,67.00
2019-05-25T11:15:17.539Z,66.90
2019-05-25T11:17:46.368Z,67.10
2019-05-25T11:20:16.604Z,67.60
2019-05-25T11:22:45.137Z,67.30
2019-05-25T11:25:16.261Z,65.50
2019-05-25T11:27:44.820Z,64.80
2019-05-25T11:30:13.844Z,64.70
2019-05-25T11:32:42.332Z,62.80
2019-05-25T11:35:12.419Z,62.50
2019-05-25T11:37:41.881Z,62.20
2019-05-25T11:40:11.312Z,63.20
2019-05-25T11:42:39.874Z,61.50
2019-05-25T11:45:10.033Z,61.20
2019-05-25T11:47:38.716Z,60.90
2019-05-25T11:50:09.631Z,60.20
2019-05-25T11:52:40.326Z,60.80
2019-05-25T11:55:10.353Z,59.90
2019-05-25T11:57:39.069Z,60.40
2019-05-25T12:00:23.644Z,60.70
2019-05-25T12:02:40.755Z,60.30
2019-05-25T12:05:10.496Z,59.20
2019-05-25T12:07:43.866Z,58.80
2019-05-25T12:10:13.227Z,58.60
2019-05-25T12:12:41.941Z,58.40
2019-05-25T12:15:11.240Z,58.40
2019-05-25T12:17:40.138Z,58.50
2019-05-25T12:20:11.088Z,58.20
2019-05-25T12:22:39.371Z,58.00
2019-05-25T12:25:08.470Z,57.80
2019-05-25T12:27:37.122Z,57.20
2019-05-25T12:30:08.145Z,57.70
2019-05-25T12:32:36.735Z,57.50
2019-05-25T12:35:08.832Z,57.10
2019-05-25T12:37:37.478Z,56.90
2019-05-25T12:40:07.673Z,55.50
2019-05-25T12:42:37.765Z,55.10
2019-05-25T12:45:07.486Z,53.70
2019-05-25T12:47:36.348Z,53.30
2019-05-25T12:50:07.539Z,51.50
2019-05-25T12:52:37.852Z,51.10
2019-05-25T12:55:06.952Z,51.50
2019-05-25T12:57:35.561Z,50.60
2019-05-25T13:00:15.604Z,50.50
2019-05-25T13:02:36.730Z,49.20
2019-05-25T13:05:06.710Z,49.80
2019-05-25T13:07:35.276Z,49.40
2019-05-25T13:10:06.090Z,49.40
2019-05-25T13:12:34.682Z,48.70
2019-05-25T13:15:04.352Z,48.40
2019-05-25T13:17:32.887Z,47.90
2019-05-25T13:20:01.444Z,46.40
2019-05-25T13:22:30.048Z,46.00
2019-05-25T13:24:58.903Z,46.50
2019-05-25T13:27:27.492Z,46.20
2019-05-25T13:29:56.138Z,46.00
2019-05-25T13:32:24.726Z,46.90
2019-05-25T13:34:55.319Z,46.80
2019-05-25T13:37:23.585Z,47.30
2019-05-25T13:39:52.190Z,48.20
2019-05-25T13:42:20.780Z,48.20
2019-05-25T13:44:49.339Z,46.20
2019-05-25T13:47:17.887Z,46.20
2019-05-25T13:49:46.473Z,46.90
2019-05-25T13:52:15.053Z,47.40
2019-05-25T13:54:43.720Z,47.50
2019-05-25T13:57:12.298Z,48.00
2019-05-25T13:59:41.011Z,48.80
2019-05-25T14:02:09.564Z,49.80
2019-05-25T14:04:38.143Z,50.10
2019-05-25T14:07:07.555Z,50.80
2019-05-25T14:09:36.150Z,51.30
2019-05-25T14:12:06.634Z,52.30
2019-05-25T14:14:36.090Z,52.50
2019-05-25T14:17:06.169Z,51.30
2019-05-25T14:19:34.659Z,51.30
2019-05-25T14:22:03.320Z,50.70
2019-05-25T14:24:31.817Z,50.50
2019-05-25T14:27:00.560Z,50.10
2019-05-25T14:29:29.490Z,50.00
2019-05-25T14:31:58.888Z,50.20
2019-05-25T14:34:27.471Z,50.60
2019-05-25T14:36:56.061Z,51.20
2019-05-25T14:39:25.778Z,52.20
2019-05-25T14:41:54.381Z,52.50
2019-05-25T14:44:24.403Z,51.80
2019-05-25T14:46:52.896Z,51.90
2019-05-25T14:49:31.861Z,52.00
2019-05-25T14:52:01.926Z,52.10
2019-05-25T14:54:30.491Z,52.30
2019-05-25T14:56:59.158Z,51.40
2019-05-25T14:59:27.746Z,51.40
2019-05-25T15:02:02.374Z,52.80
2019-05-25T15:04:26.649Z,55.50
2019-05-25T15:06:55.236Z,55.20
2019-05-25T15:09:23.988Z,54.70
2019-05-25T15:11:54.021Z,54.60
2019-05-25T15:14:24.073Z,54.00
2019-05-25T15:16:53.342Z,52.70
2019-05-25T15:19:22.024Z,53.00
2019-05-25T15:21:50.693Z,53.60
2019-05-25T15:24:19.875Z,53.50
2019-05-25T15:26:48.462Z,53.50
2019-05-25T15:29:17.056Z,53.90
2019-05-25T15:31:45.562Z,53.60
2019-05-25T15:34:15.447Z,54.30
2019-05-25T15:36:45.168Z,55.20
2019-05-25T15:39:15.247Z,54.90
2019-05-25T15:41:44.206Z,55.50
2019-05-25T15:44:12.820Z,55.40
2019-05-25T15:46:44.025Z,55.70
2019-05-25T15:49:12.519Z,55.40
2019-05-25T15:51:41.371Z,56.00
2019-05-25T15:54:10.833Z,55.60
2019-05-25T15:56:42.228Z,55.30
2019-05-25T15:59:10.794Z,54.40
2019-05-25T16:01:39.306Z,54.10
2019-05-25T16:04:07.875Z,54.00
2019-05-25T16:06:38.311Z,53.40
2019-05-25T16:09:08.832Z,53.90
2019-05-25T16:11:37.398Z,54.10
2019-05-25T16:14:09.252Z,54.40
2019-05-25T16:16:37.742Z,54.60
2019-05-25T16:19:06.316Z,54.80
2019-05-25T16:21:34.869Z,54.30
2019-05-25T16:24:07.929Z,52.90
2019-05-25T16:26:45.684Z,52.70
2019-05-25T16:29:04.982Z,52.60
2019-05-25T16:31:33.555Z,53.40
2019-05-25T16:34:02.113Z,54.00
2019-05-25T16:36:30.723Z,54.10
2019-05-25T16:39:01.180Z,53.80
2019-05-25T16:41:29.736Z,53.70
2019-05-25T16:43:58.319Z,53.70
2019-05-25T16:46:26.889Z,53.50
2019-05-25T16:48:56.385Z,53.50
2019-05-25T16:51:24.965Z,53.00
2019-05-25T16:53:53.502Z,53.30
2019-05-25T16:56:22.083Z,53.20
2019-05-25T16:58:50.646Z,53.40
2019-05-25T17:01:19.288Z,53.20
2019-05-25T17:03:47.843Z,53.30
2019-05-25T17:06:16.408Z,53.70
2019-05-25T17:08:45.934Z,53.70
2019-05-25T17:11:14.526Z,53.20
2019-05-25T17:13:43.235Z,53.40
2019-05-25T17:16:12.177Z,53.50
2019-05-25T17:18:40.800Z,53.60
2019-05-25T17:21:09.348Z,53.90
2019-05-25T17:23:38.320Z,54.50
2019-05-25T17:26:06.926Z,54.90
2019-05-25T17:28:35.475Z,55.10
2019-05-25T17:31:04.042Z,55.10
2019-05-25T17:33:45.325Z,55.30
2019-05-25T17:36:02.883Z,54.80
2019-05-25T17:38:32.282Z,54.50
2019-05-25T17:41:02.709Z,55.00
2019-05-25T17:43:31.796Z,55.00
2019-05-25T17:46:02.651Z,56.00
2019-05-25T17:48:31.247Z,56.20
2019-05-25T17:51:02.142Z,56.10
2019-05-25T17:53:31.946Z,56.30
2019-05-25T17:56:04.824Z,56.50
2019-05-25T17:58:34.228Z,56.80
2019-05-25T18:01:03.116Z,57.70
2019-05-25T18:03:35.067Z,56.70
2019-05-25T18:06:03.728Z,56.70
2019-05-25T18:08:32.314Z,56.20
2019-05-25T18:11:00.900Z,56.40
2019-05-25T18:13:29.520Z,56.70
2019-05-25T18:16:00.411Z,56.50
2019-05-25T18:18:32.687Z,56.40
2019-05-25T18:21:01.756Z,56.00
2019-05-25T18:23:33.297Z,56.30
2019-05-25T18:26:01.874Z,55.90
2019-05-25T18:28:30.444Z,55.90
2019-05-25T18:30:59.188Z,55.70
2019-05-25T18:33:38.241Z,55.80
2019-05-25T18:36:08.590Z,55.80
2019-05-25T18:38:37.169Z,56.20
2019-05-25T18:41:05.736Z,56.50
2019-05-25T18:43:34.332Z,56.80
2019-05-25T18:46:04.382Z,57.00
2019-05-25T18:48:34.457Z,57.20
2019-05-25T18:51:03.237Z,57.30
2019-05-25T18:53:32.021Z,57.70
2019-05-25T18:56:00.616Z,57.80
2019-05-25T18:58:29.188Z,57.90
2019-05-25T19:00:57.746Z,58.00
2019-05-25T19:03:26.260Z,58.20
2019-05-25T19:05:56.169Z,58.30
2019-05-25T19:08:27.374Z,58.50
2019-05-25T19:10:56.304Z,58.80
2019-05-25T19:13:24.870Z,58.80
2019-05-25T19:15:53.461Z,59.60
2019-05-25T19:18:22.083Z,59.20
2019-05-25T19:20:50.659Z,59.10
2019-05-25T19:23:19.824Z,59.30
2019-05-25T19:25:48.428Z,59.60
2019-05-25T19:28:17.007Z,59.90
2019-05-25T19:30:47.492Z,60.10
2019-05-25T19:33:15.814Z,60.10
2019-05-25T19:35:44.362Z,60.30
2019-05-25T19:38:13.943Z,60.70
2019-05-25T19:40:42.512Z,61.10
2019-05-25T19:43:12.268Z,61.40
2019-05-25T19:45:40.828Z,61.50
2019-05-25T19:48:09.757Z,62.00
2019-05-25T19:50:38.270Z,62.00
2019-05-25T19:53:06.838Z,62.40
2019-05-25T19:55:35.420Z,62.70
2019-05-25T19:58:03.908Z,62.70
2019-05-25T20:00:32.470Z,62.70
2019-05-25T20:03:02.654Z,62.80
2019-05-25T20:05:32.679Z,63.40
2019-05-25T20:08:03.739Z,63.50
2019-05-25T20:10:32.309Z,63.70
2019-05-25T20:13:00.877Z,64.30
2019-05-25T20:15:30.898Z,64.00
2019-05-25T20:17:59.740Z,64.00
2019-05-25T20:20:28.294Z,64.40
2019-05-25T20:22:56.824Z,64.90
2019-05-25T20:25:25.409Z,65.10
2019-05-25T20:27:54.420Z,65.30
2019-05-25T20:30:24.924Z,65.30
2019-05-25T20:32:53.497Z,65.40
2019-05-25T20:35:32.225Z,66.10
2019-05-25T20:37:52.584Z,66.10
2019-05-25T20:40:21.165Z,66.40
2019-05-25T20:42:51.220Z,66.20
2019-05-25T20:45:19.849Z,66.10
2019-05-25T20:47:50.216Z,66.00
2019-05-25T20:50:19.469Z,66.20
2019-05-25T20:52:47.990Z,66.30
2019-05-25T20:55:17.624Z,66.50
2019-05-25T20:57:46.217Z,66.40
2019-05-25T21:00:15.314Z,66.40
2019-05-25T21:02:45.435Z,66.50
2019-05-25T21:05:14.063Z,66.60
2019-05-25T21:07:43.542Z,66.90
2019-05-25T21:10:12.251Z,66.90
2019-05-25T21:12:40.747Z,67.20
2019-05-25T21:15:09.931Z,67.40
2019-05-25T21:17:38.716Z,67.30
2019-05-25T21:20:08.640Z,67.30
2019-05-25T21:22:37.206Z,67.20
2019-05-25T21:25:11.082Z,67.40
2019-05-25T21:27:42.506Z,67.50
2019-05-25T21:30:11.482Z,67.30
2019-05-25T21:32:40.323Z,67.60
2019-05-25T21:35:11.498Z,67.60
2019-05-25T21:37:41.057Z,67.70
2019-05-25T21:40:10.014Z,67.40
2019-05-25T21:42:39.463Z,67.30
2019-05-25T21:45:07.469Z,66.90
2019-05-25T21:47:37.811Z,67.50
2019-05-25T21:50:07.279Z,67.20
2019-05-25T21:52:36.105Z,67.80
2019-05-25T21:55:05.858Z,67.50
2019-05-25T21:57:34.469Z,67.80
2019-05-25T22:00:04.468Z,67.40
2019-05-25T22:02:33.054Z,67.30
2019-05-25T22:05:01.641Z,68.30
2019-05-25T22:07:30.223Z,67.80
2019-05-25T22:09:58.796Z,68.10
2019-05-25T22:12:27.381Z,67.90
2019-05-25T22:14:55.958Z,67.80
2019-05-25T22:17:24.541Z,67.80
2019-05-25T22:19:53.219Z,67.80
2019-05-25T22:22:21.833Z,68.00
2019-05-25T22:24:50.375Z,68.00
2019-05-25T22:27:19.131Z,67.70
2019-05-25T22:29:48.773Z,67.80
2019-05-25T22:32:17.357Z,67.70
2019-05-25T22:34:45.868Z,67.70
2019-05-25T22:37:14.518Z,67.90
2019-05-25T22:39:43.012Z,67.90
2019-05-25T22:42:11.610Z,68.00
2019-05-25T22:44:40.189Z,68.40
2019-05-25T22:47:09.017Z,68.20
2019-05-25T22:49:36.831Z,68.10
2019-05-25T22:52:05.416Z,68.50
2019-05-25T22:54:34.049Z,69.60
2019-05-25T22:57:01.880Z,69.30
2019-05-25T22:59:30.435Z,69.20
2019-05-25T23:01:59.048Z,69.50
2019-05-25T23:04:29.131Z,69.80
2019-05-25T23:06:58.646Z,69.80
2019-05-25T23:09:27.500Z,70.00
2019-05-25T23:11:56.107Z,70.10
2019-05-25T23:14:24.665Z,70.10
2019-05-25T23:16:53.187Z,70.00
2019-05-25T23:19:21.731Z,70.00
2019-05-25T23:21:50.302Z,69.90
2019-05-25T23:24:18.871Z,69.70
2019-05-25T23:26:47.461Z,69.90
2019-05-25T23:29:17.647Z,69.80
2019-05-25T23:31:46.255Z,70.20
2019-05-25T23:34:14.832Z,70.40
2019-05-25T23:36:43.399Z,70.70
2019-05-25T23:39:12.014Z,70.70
2019-05-25T23:41:40.593Z,71.00
2019-05-25T23:44:09.187Z,71.40
2019-05-25T23:46:37.767Z,71.80
2019-05-25T23:49:05.582Z,72.80
2019-05-25T23:51:34.157Z,72.80
2019-05-25T23:54:02.716Z,73.30
2019-05-25T23:56:31.358Z,73.60
2019-05-25T23:58:59.858Z,73.80
